sensor_id;sensor_type;location;lat;lon;timestamp;temperature;humidity
18067;DHT22;9158;51.528;7.192;2023-05-02T00:00:30;12.00;1.00
18067;DHT22;9158;51.528;7.192;2023-05-02T00:01:02;12.10;1.00
18067;DHT22;9158;51.528;7.192;2023-05-02T00:01:34;12.00;1.00
18067;DHT22;9158;51.528;7.192;2023-05-02T00:02:06;12.00;1.00
18067;DHT22;9158;51.528;7.192;2023-05-02T00:02:38;12.10;1.00
18067;DHT22;9158;51.528;7.192;2023-05-02T00:03:09;12.00;1.00
18067;DHT22;9158;51.528;7.192;2023-05-02T00:03:40;12.00;1.00
18067;DHT22;9158;51.528;7.192;2023-05-02T00:04:12;12.00;1.00
18067;DHT22;9158;51.528;7.192;2023-05-02T00:04:44;12.00;1.00
18067;DHT22;9158;51.528;7.192;2023-05-02T00:05:15;11.90;1.00
18067;DHT22;9158;51.528;7.192;2023-05-02T00:05:46;11.90;1.00
18067;DHT22;9158;51.528;7.192;2023-05-02T00:06:18;11.80;1.00
18067;DHT22;9158;51.528;7.192;2023-05-02T00:06:50;11.80;1.00
18067;DHT22;9158;51.528;7.192;2023-05-02T00:07:21;11.80;1.00
18067;DHT22;9158;51.528;7.192;2023-05-02T00:07:53;11.70;1.00
18067;DHT22;9158;51.528;7.192;2023-05-02T00:08:25;11.70;1.00
18067;DHT22;9158;51.528;7.192;2023-05-02T00:09:28;11.70;1.00
18067;DHT22;9158;51.528;7.192;2023-05-02T00:09:59;11.60;1.00
18067;DHT22;9158;51.528;7.192;2023-05-02T00:10:32;11.60;1.00
18067;DHT22;9158;51.528;7.192;2023-05-02T00:11:04;11.60;1.00
18067;DHT22;9158;51.528;7.192;2023-05-02T00:11:35;11.60;1.00
18067;DHT22;9158;51.528;7.192;2023-05-02T00:12:07;11.60;1.00
18067;DHT22;9158;51.528;7.192;2023-05-02T00:12:38;11.60;4.40
18067;DHT22;9158;51.528;7.192;2023-05-02T00:13:09;11.60;1.00
18067;DHT22;9158;51.528;7.192;2023-05-02T00:13:41;11.60;28.60
18067;DHT22;9158;51.528;7.192;2023-05-02T00:14:13;11.60;29.10
18067;DHT22;9158;51.528;7.192;2023-05-02T00:14:45;11.60;27.60
18067;DHT22;9158;51.528;7.192;2023-05-02T00:15:17;11.60;33.30
18067;DHT22;9158;51.528;7.192;2023-05-02T00:15:49;11.60;50.50
18067;DHT22;9158;51.528;7.192;2023-05-02T00:16:20;11.60;26.20
18067;DHT22;9158;51.528;7.192;2023-05-02T00:16:52;11.60;54.70
18067;DHT22;9158;51.528;7.192;2023-05-02T00:17:22;11.60;36.90
18067;DHT22;9158;51.528;7.192;2023-05-02T00:17:53;11.60;27.40
18067;DHT22;9158;51.528;7.192;2023-05-02T00:18:25;11.60;20.80
18067;DHT22;9158;51.528;7.192;2023-05-02T00:18:56;11.60;19.10
18067;DHT22;9158;51.528;7.192;2023-05-02T00:19:27;11.60;41.60
18067;DHT22;9158;51.528;7.192;2023-05-02T00:19:59;11.60;52.90
18067;DHT22;9158;51.528;7.192;2023-05-02T00:20:30;11.50;65.50
18067;DHT22;9158;51.528;7.192;2023-05-02T00:21:01;11.50;69.60
18067;DHT22;9158;51.528;7.192;2023-05-02T00:21:33;11.50;91.20
18067;DHT22;9158;51.528;7.192;2023-05-02T00:22:04;11.50;99.90
18067;DHT22;9158;51.528;7.192;2023-05-02T00:22:35;11.50;95.30
18067;DHT22;9158;51.528;7.192;2023-05-02T00:23:40;11.50;31.40
18067;DHT22;9158;51.528;7.192;2023-05-02T00:24:11;11.50;58.40
18067;DHT22;9158;51.528;7.192;2023-05-02T00:24:43;11.50;74.30
18067;DHT22;9158;51.528;7.192;2023-05-02T00:25:14;11.50;57.70
18067;DHT22;9158;51.528;7.192;2023-05-02T00:25:46;11.50;50.10
18067;DHT22;9158;51.528;7.192;2023-05-02T00:26:17;11.40;41.50
18067;DHT22;9158;51.528;7.192;2023-05-02T00:26:49;11.50;63.80
18067;DHT22;9158;51.528;7.192;2023-05-02T00:27:21;11.50;54.20
18067;DHT22;9158;51.528;7.192;2023-05-02T00:27:52;11.40;62.20
18067;DHT22;9158;51.528;7.192;2023-05-02T00:28:23;11.40;71.50
18067;DHT22;9158;51.528;7.192;2023-05-02T00:28:57;11.40;58.30
18067;DHT22;9158;51.528;7.192;2023-05-02T00:29:28;11.40;90.80
18067;DHT22;9158;51.528;7.192;2023-05-02T00:30:00;11.30;78.70
18067;DHT22;9158;51.528;7.192;2023-05-02T00:30:32;13.70;19.30
18067;DHT22;9158;51.528;7.192;2023-05-02T00:31:04;11.30;28.30
18067;DHT22;9158;51.528;7.192;2023-05-02T00:32:07;11.30;54.40
18067;DHT22;9158;51.528;7.192;2023-05-02T00:32:38;11.30;57.20
18067;DHT22;9158;51.528;7.192;2023-05-02T00:33:10;11.30;93.70
18067;DHT22;9158;51.528;7.192;2023-05-02T00:33:42;11.30;83.20
18067;DHT22;9158;51.528;7.192;2023-05-02T00:34:13;11.30;99.90
18067;DHT22;9158;51.528;7.192;2023-05-02T00:34:44;11.40;99.90
18067;DHT22;9158;51.528;7.192;2023-05-02T00:35:16;11.30;83.10
18067;DHT22;9158;51.528;7.192;2023-05-02T00:35:47;11.30;99.40
18067;DHT22;9158;51.528;7.192;2023-05-02T00:36:20;11.30;98.40
18067;DHT22;9158;51.528;7.192;2023-05-02T00:36:51;11.40;99.90
18067;DHT22;9158;51.528;7.192;2023-05-02T00:37:25;11.40;99.90
18067;DHT22;9158;51.528;7.192;2023-05-02T00:37:58;11.40;99.90
18067;DHT22;9158;51.528;7.192;2023-05-02T00:38:29;11.40;99.90
18067;DHT22;9158;51.528;7.192;2023-05-02T00:39:01;11.40;99.90
18067;DHT22;9158;51.528;7.192;2023-05-02T00:39:33;11.40;99.90
18067;DHT22;9158;51.528;7.192;2023-05-02T00:40:05;11.40;99.90
18067;DHT22;9158;51.528;7.192;2023-05-02T00:40:48;11.40;99.90
18067;DHT22;9158;51.528;7.192;2023-05-02T00:41:20;11.40;99.90
18067;DHT22;9158;51.528;7.192;2023-05-02T00:41:55;11.40;99.90
18067;DHT22;9158;51.528;7.192;2023-05-02T00:42:28;11.40;99.90
18067;DHT22;9158;51.528;7.192;2023-05-02T00:43:01;11.40;99.90
18067;DHT22;9158;51.528;7.192;2023-05-02T00:43:32;11.40;99.90
18067;DHT22;9158;51.528;7.192;2023-05-02T00:44:04;11.40;99.90
18067;DHT22;9158;51.528;7.192;2023-05-02T00:44:35;11.40;99.90
18067;DHT22;9158;51.528;7.192;2023-05-02T00:45:08;11.40;99.90
18067;DHT22;9158;51.528;7.192;2023-05-02T00:45:41;11.40;99.90
18067;DHT22;9158;51.528;7.192;2023-05-02T00:46:13;11.40;99.90
18067;DHT22;9158;51.528;7.192;2023-05-02T00:46:44;11.40;99.90
18067;DHT22;9158;51.528;7.192;2023-05-02T00:47:49;11.50;99.90
18067;DHT22;9158;51.528;7.192;2023-05-02T00:48:20;11.40;62.40
18067;DHT22;9158;51.528;7.192;2023-05-02T00:48:53;11.50;99.90
18067;DHT22;9158;51.528;7.192;2023-05-02T00:49:24;11.50;99.90
18067;DHT22;9158;51.528;7.192;2023-05-02T00:49:55;11.50;99.90
18067;DHT22;9158;51.528;7.192;2023-05-02T00:50:26;11.40;99.90
18067;DHT22;9158;51.528;7.192;2023-05-02T00:50:59;11.40;99.90
18067;DHT22;9158;51.528;7.192;2023-05-02T00:51:32;11.50;99.90
18067;DHT22;9158;51.528;7.192;2023-05-02T00:52:03;11.40;99.90
18067;DHT22;9158;51.528;7.192;2023-05-02T00:52:36;11.50;99.90
18067;DHT22;9158;51.528;7.192;2023-05-02T00:53:08;11.50;99.90
18067;DHT22;9158;51.528;7.192;2023-05-02T00:53:39;11.40;99.90
18067;DHT22;9158;51.528;7.192;2023-05-02T00:54:11;11.40;99.90
18067;DHT22;9158;51.528;7.192;2023-05-02T00:54:43;11.40;99.90
18067;DHT22;9158;51.528;7.192;2023-05-02T00:55:14;11.40;99.90
18067;DHT22;9158;51.528;7.192;2023-05-02T00:55:46;11.30;99.90
18067;DHT22;9158;51.528;7.192;2023-05-02T00:56:19;11.30;66.10
18067;DHT22;9158;51.528;7.192;2023-05-02T00:56:50;11.30;98.40
18067;DHT22;9158;51.528;7.192;2023-05-02T00:57:22;11.30;95.40
18067;DHT22;9158;51.528;7.192;2023-05-02T00:57:53;11.30;99.90
18067;DHT22;9158;51.528;7.192;2023-05-02T00:58:24;11.40;99.90
18067;DHT22;9158;51.528;7.192;2023-05-02T00:58:57;11.30;99.90
18067;DHT22;9158;51.528;7.192;2023-05-02T00:59:28;11.30;99.90
18067;DHT22;9158;51.528;7.192;2023-05-02T00:59:59;11.30;99.90
18067;DHT22;9158;51.528;7.192;2023-05-02T01:00:45;11.30;99.90
18067;DHT22;9158;51.528;7.192;2023-05-02T01:01:28;11.30;99.90
18067;DHT22;9158;51.528;7.192;2023-05-02T01:02:15;11.30;99.90
18067;DHT22;9158;51.528;7.192;2023-05-02T01:02:55;11.30;99.90
18067;DHT22;9158;51.528;7.192;2023-05-02T01:03:35;11.30;99.90
18067;DHT22;9158;51.528;7.192;2023-05-02T01:04:25;11.30;99.90
18067;DHT22;9158;51.528;7.192;2023-05-02T01:05:13;11.20;99.90
18067;DHT22;9158;51.528;7.192;2023-05-02T01:05:49;11.20;99.90
18067;DHT22;9158;51.528;7.192;2023-05-02T01:06:29;11.20;99.90
18067;DHT22;9158;51.528;7.192;2023-05-02T01:07:13;11.20;99.90
18067;DHT22;9158;51.528;7.192;2023-05-02T01:08:02;11.20;99.90
18067;DHT22;9158;51.528;7.192;2023-05-02T01:08:44;11.20;99.90
18067;DHT22;9158;51.528;7.192;2023-05-02T01:09:25;11.20;99.90
18067;DHT22;9158;51.528;7.192;2023-05-02T01:10:06;11.20;99.90
18067;DHT22;9158;51.528;7.192;2023-05-02T01:10:47;11.20;99.90
18067;DHT22;9158;51.528;7.192;2023-05-02T01:11:29;11.20;99.90
18067;DHT22;9158;51.528;7.192;2023-05-02T01:12:09;11.10;99.90
18067;DHT22;9158;51.528;7.192;2023-05-02T01:12:47;11.10;99.90
18067;DHT22;9158;51.528;7.192;2023-05-02T01:13:28;11.10;99.90
18067;DHT22;9158;51.528;7.192;2023-05-02T01:14:04;11.10;99.90
18067;DHT22;9158;51.528;7.192;2023-05-02T01:14:41;11.10;99.90
18067;DHT22;9158;51.528;7.192;2023-05-02T01:15:15;11.00;99.90
18067;DHT22;9158;51.528;7.192;2023-05-02T01:15:50;11.10;99.90
18067;DHT22;9158;51.528;7.192;2023-05-02T01:16:23;11.00;99.90
18067;DHT22;9158;51.528;7.192;2023-05-02T01:16:57;11.00;99.90
18067;DHT22;9158;51.528;7.192;2023-05-02T01:17:30;11.10;99.90
18067;DHT22;9158;51.528;7.192;2023-05-02T01:18:03;11.00;99.90
18067;DHT22;9158;51.528;7.192;2023-05-02T01:18:38;11.10;99.90
18067;DHT22;9158;51.528;7.192;2023-05-02T01:19:15;11.10;99.90
18067;DHT22;9158;51.528;7.192;2023-05-02T01:19:51;11.10;99.90
18067;DHT22;9158;51.528;7.192;2023-05-02T01:20:26;11.10;99.90
18067;DHT22;9158;51.528;7.192;2023-05-02T01:21:02;11.10;99.90
18067;DHT22;9158;51.528;7.192;2023-05-02T01:21:33;11.10;99.90
18067;DHT22;9158;51.528;7.192;2023-05-02T01:22:08;11.10;99.90
18067;DHT22;9158;51.528;7.192;2023-05-02T01:22:40;11.10;99.90
18067;DHT22;9158;51.528;7.192;2023-05-02T01:23:16;11.20;99.90
18067;DHT22;9158;51.528;7.192;2023-05-02T01:24:01;11.20;99.90
18067;DHT22;9158;51.528;7.192;2023-05-02T01:24:40;11.20;16.70
18067;DHT22;9158;51.528;7.192;2023-05-02T01:25:21;11.20;22.80
18067;DHT22;9158;51.528;7.192;2023-05-02T01:26:08;11.20;11.60
18067;DHT22;9158;51.528;7.192;2023-05-02T01:26:48;11.20;32.70
18067;DHT22;9158;51.528;7.192;2023-05-02T01:27:27;11.20;26.90
18067;DHT22;9158;51.528;7.192;2023-05-02T01:28:09;11.30;21.90
18067;DHT22;9158;51.528;7.192;2023-05-02T01:28:58;11.30;11.50
18067;DHT22;9158;51.528;7.192;2023-05-02T01:29:30;11.30;54.80
18067;DHT22;9158;51.528;7.192;2023-05-02T01:30:02;11.30;22.70
18067;DHT22;9158;51.528;7.192;2023-05-02T01:30:37;11.30;17.50
18067;DHT22;9158;51.528;7.192;2023-05-02T01:31:10;11.30;10.30
18067;DHT22;9158;51.528;7.192;2023-05-02T01:31:44;11.30;19.50
18067;DHT22;9158;51.528;7.192;2023-05-02T01:32:19;11.40;24.30
18067;DHT22;9158;51.528;7.192;2023-05-02T01:32:53;11.40;40.40
18067;DHT22;9158;51.528;7.192;2023-05-02T01:33:26;11.40;1.00
18067;DHT22;9158;51.528;7.192;2023-05-02T01:34:00;11.40;1.00
18067;DHT22;9158;51.528;7.192;2023-05-02T01:34:32;11.40;21.10
18067;DHT22;9158;51.528;7.192;2023-05-02T01:35:07;11.30;1.00
18067;DHT22;9158;51.528;7.192;2023-05-02T01:35:42;11.30;2.30
18067;DHT22;9158;51.528;7.192;2023-05-02T01:36:15;11.40;22.20
18067;DHT22;9158;51.528;7.192;2023-05-02T01:36:49;11.40;5.50
18067;DHT22;9158;51.528;7.192;2023-05-02T01:37:22;11.40;1.00
18067;DHT22;9158;51.528;7.192;2023-05-02T01:37:55;11.40;46.40
18067;DHT22;9158;51.528;7.192;2023-05-02T01:38:28;11.40;12.40
18067;DHT22;9158;51.528;7.192;2023-05-02T01:39:01;11.40;21.30
18067;DHT22;9158;51.528;7.192;2023-05-02T01:39:35;11.40;1.00
18067;DHT22;9158;51.528;7.192;2023-05-02T01:40:09;11.40;2.70
18067;DHT22;9158;51.528;7.192;2023-05-02T01:40:43;11.40;1.00
18067;DHT22;9158;51.528;7.192;2023-05-02T01:41:15;11.40;1.00
18067;DHT22;9158;51.528;7.192;2023-05-02T01:41:50;11.50;1.00
18067;DHT22;9158;51.528;7.192;2023-05-02T01:42:23;11.40;1.00
18067;DHT22;9158;51.528;7.192;2023-05-02T01:42:56;11.40;1.00
18067;DHT22;9158;51.528;7.192;2023-05-02T01:43:29;11.40;1.00
18067;DHT22;9158;51.528;7.192;2023-05-02T01:44:06;11.40;1.00
18067;DHT22;9158;51.528;7.192;2023-05-02T01:44:39;11.40;15.70
18067;DHT22;9158;51.528;7.192;2023-05-02T01:45:12;11.40;1.00
18067;DHT22;9158;51.528;7.192;2023-05-02T01:45:47;11.40;1.00
18067;DHT22;9158;51.528;7.192;2023-05-02T01:46:19;11.40;62.90
18067;DHT22;9158;51.528;7.192;2023-05-02T01:46:52;11.30;47.20
18067;DHT22;9158;51.528;7.192;2023-05-02T01:47:26;11.40;34.60
18067;DHT22;9158;51.528;7.192;2023-05-02T01:47:59;11.40;12.20
18067;DHT22;9158;51.528;7.192;2023-05-02T01:48:31;11.30;2.10
18067;DHT22;9158;51.528;7.192;2023-05-02T01:49:06;11.40;37.60
18067;DHT22;9158;51.528;7.192;2023-05-02T01:49:37;11.40;8.40
18067;DHT22;9158;51.528;7.192;2023-05-02T01:50:14;11.40;12.60
18067;DHT22;9158;51.528;7.192;2023-05-02T01:50:47;11.40;9.40
18067;DHT22;9158;51.528;7.192;2023-05-02T01:51:20;11.40;22.10
18067;DHT22;9158;51.528;7.192;2023-05-02T01:51:52;11.40;1.00
18067;DHT22;9158;51.528;7.192;2023-05-02T01:52:26;11.30;14.40
18067;DHT22;9158;51.528;7.192;2023-05-02T01:52:57;11.30;15.60
18067;DHT22;9158;51.528;7.192;2023-05-02T01:53:29;11.30;50.20
18067;DHT22;9158;51.528;7.192;2023-05-02T01:54:05;11.30;29.90
18067;DHT22;9158;51.528;7.192;2023-05-02T01:54:39;11.20;59.60
18067;DHT22;9158;51.528;7.192;2023-05-02T01:55:12;11.20;82.90
18067;DHT22;9158;51.528;7.192;2023-05-02T01:55:46;11.20;82.90
18067;DHT22;9158;51.528;7.192;2023-05-02T01:56:18;11.20;71.90
18067;DHT22;9158;51.528;7.192;2023-05-02T01:56:51;11.20;99.90
18067;DHT22;9158;51.528;7.192;2023-05-02T01:57:25;11.20;99.90
18067;DHT22;9158;51.528;7.192;2023-05-02T01:57:56;11.20;60.50
18067;DHT22;9158;51.528;7.192;2023-05-02T01:58:28;11.20;39.80
18067;DHT22;9158;51.528;7.192;2023-05-02T01:59:01;11.20;91.30
18067;DHT22;9158;51.528;7.192;2023-05-02T01:59:36;11.30;84.00
18067;DHT22;9158;51.528;7.192;2023-05-02T02:00:10;11.30;95.20
18067;DHT22;9158;51.528;7.192;2023-05-02T02:00:46;11.30;99.90
18067;DHT22;9158;51.528;7.192;2023-05-02T02:01:17;11.30;99.90
18067;DHT22;9158;51.528;7.192;2023-05-02T02:01:50;11.30;99.90
18067;DHT22;9158;51.528;7.192;2023-05-02T02:02:23;11.30;59.70
18067;DHT22;9158;51.528;7.192;2023-05-02T02:02:57;11.30;99.90
18067;DHT22;9158;51.528;7.192;2023-05-02T02:03:30;11.30;45.30
18067;DHT22;9158;51.528;7.192;2023-05-02T02:04:03;11.30;47.60
18067;DHT22;9158;51.528;7.192;2023-05-02T02:04:37;11.30;95.60
18067;DHT22;9158;51.528;7.192;2023-05-02T02:05:09;11.30;98.10
18067;DHT22;9158;51.528;7.192;2023-05-02T02:05:43;11.40;99.90
18067;DHT22;9158;51.528;7.192;2023-05-02T02:06:15;11.40;77.10
18067;DHT22;9158;51.528;7.192;2023-05-02T02:06:52;11.40;76.00
18067;DHT22;9158;51.528;7.192;2023-05-02T02:07:25;11.40;77.60
18067;DHT22;9158;51.528;7.192;2023-05-02T02:07:56;11.40;32.10
18067;DHT22;9158;51.528;7.192;2023-05-02T02:08:28;11.40;36.10
18067;DHT22;9158;51.528;7.192;2023-05-02T02:08:59;11.40;1.00
18067;DHT22;9158;51.528;7.192;2023-05-02T02:09:31;11.30;4.90
18067;DHT22;9158;51.528;7.192;2023-05-02T02:10:06;11.30;37.60
18067;DHT22;9158;51.528;7.192;2023-05-02T02:10:40;11.30;21.90
18067;DHT22;9158;51.528;7.192;2023-05-02T02:11:18;11.30;35.10
18067;DHT22;9158;51.528;7.192;2023-05-02T02:11:56;11.30;29.10
18067;DHT22;9158;51.528;7.192;2023-05-02T02:12:34;11.30;38.10
18067;DHT22;9158;51.528;7.192;2023-05-02T02:13:14;11.30;14.60
18067;DHT22;9158;51.528;7.192;2023-05-02T02:13:48;11.30;39.10
18067;DHT22;9158;51.528;7.192;2023-05-02T02:14:24;11.20;33.40
18067;DHT22;9158;51.528;7.192;2023-05-02T02:15:02;11.20;29.00
18067;DHT22;9158;51.528;7.192;2023-05-02T02:15:34;11.30;35.00
18067;DHT22;9158;51.528;7.192;2023-05-02T02:16:11;11.30;44.00
18067;DHT22;9158;51.528;7.192;2023-05-02T02:16:44;11.30;49.50
18067;DHT22;9158;51.528;7.192;2023-05-02T02:17:26;11.20;1.00
18067;DHT22;9158;51.528;7.192;2023-05-02T02:18:04;11.30;42.10
18067;DHT22;9158;51.528;7.192;2023-05-02T02:18:38;11.30;93.20
18067;DHT22;9158;51.528;7.192;2023-05-02T02:19:11;11.30;63.90
18067;DHT22;9158;51.528;7.192;2023-05-02T02:19:45;11.30;99.90
18067;DHT22;9158;51.528;7.192;2023-05-02T02:20:16;11.30;57.40
18067;DHT22;9158;51.528;7.192;2023-05-02T02:20:49;11.30;91.60
18067;DHT22;9158;51.528;7.192;2023-05-02T02:21:27;11.40;93.10
18067;DHT22;9158;51.528;7.192;2023-05-02T02:21:59;11.40;99.90
18067;DHT22;9158;51.528;7.192;2023-05-02T02:22:36;11.40;32.50
18067;DHT22;9158;51.528;7.192;2023-05-02T02:23:10;11.40;32.60
18067;DHT22;9158;51.528;7.192;2023-05-02T02:23:42;10.50;99.90
18067;DHT22;9158;51.528;7.192;2023-05-02T02:24:17;11.30;99.90
18067;DHT22;9158;51.528;7.192;2023-05-02T02:24:53;11.40;99.90
18067;DHT22;9158;51.528;7.192;2023-05-02T02:25:25;11.40;99.90
18067;DHT22;9158;51.528;7.192;2023-05-02T02:25:56;11.40;99.90
18067;DHT22;9158;51.528;7.192;2023-05-02T02:26:29;11.40;99.90
18067;DHT22;9158;51.528;7.192;2023-05-02T02:27:00;11.40;74.20
18067;DHT22;9158;51.528;7.192;2023-05-02T02:27:32;11.50;58.90
18067;DHT22;9158;51.528;7.192;2023-05-02T02:28:06;11.50;66.70
18067;DHT22;9158;51.528;7.192;2023-05-02T02:28:37;11.50;14.90
18067;DHT22;9158;51.528;7.192;2023-05-02T02:29:08;11.50;1.00
18067;DHT22;9158;51.528;7.192;2023-05-02T02:29:40;11.50;10.00
18067;DHT22;9158;51.528;7.192;2023-05-02T02:30:12;11.50;1.00
18067;DHT22;9158;51.528;7.192;2023-05-02T02:30:43;11.50;1.00
18067;DHT22;9158;51.528;7.192;2023-05-02T02:31:14;11.50;1.00
18067;DHT22;9158;51.528;7.192;2023-05-02T02:31:46;11.50;9.40
18067;DHT22;9158;51.528;7.192;2023-05-02T02:32:19;11.40;13.50
18067;DHT22;9158;51.528;7.192;2023-05-02T02:32:50;11.50;14.70
18067;DHT22;9158;51.528;7.192;2023-05-02T02:33:22;11.40;11.70
18067;DHT22;9158;51.528;7.192;2023-05-02T02:33:54;11.40;53.40
18067;DHT22;9158;51.528;7.192;2023-05-02T02:34:25;11.40;99.90
18067;DHT22;9158;51.528;7.192;2023-05-02T02:34:56;11.40;52.50
18067;DHT22;9158;51.528;7.192;2023-05-02T02:35:32;11.40;71.90
18067;DHT22;9158;51.528;7.192;2023-05-02T02:36:20;11.40;99.90
18067;DHT22;9158;51.528;7.192;2023-05-02T02:36:57;11.40;70.30
18067;DHT22;9158;51.528;7.192;2023-05-02T02:37:33;11.30;99.90
18067;DHT22;9158;51.528;7.192;2023-05-02T02:38:10;11.30;99.90
18067;DHT22;9158;51.528;7.192;2023-05-02T02:38:49;11.30;76.50
18067;DHT22;9158;51.528;7.192;2023-05-02T02:39:38;11.40;99.90
18067;DHT22;9158;51.528;7.192;2023-05-02T02:40:20;11.30;91.30
18067;DHT22;9158;51.528;7.192;2023-05-02T02:40:56;11.30;99.50
18067;DHT22;9158;51.528;7.192;2023-05-02T02:41:34;11.30;83.10
18067;DHT22;9158;51.528;7.192;2023-05-02T02:42:10;11.30;99.90
18067;DHT22;9158;51.528;7.192;2023-05-02T02:42:51;11.30;99.90
18067;DHT22;9158;51.528;7.192;2023-05-02T02:43:31;11.30;99.90
18067;DHT22;9158;51.528;7.192;2023-05-02T02:44:08;11.30;99.90
18067;DHT22;9158;51.528;7.192;2023-05-02T02:44:51;11.30;99.90
18067;DHT22;9158;51.528;7.192;2023-05-02T02:45:33;11.20;99.90
18067;DHT22;9158;51.528;7.192;2023-05-02T02:46:16;11.20;99.90
18067;DHT22;9158;51.528;7.192;2023-05-02T02:47:00;11.20;99.90
18067;DHT22;9158;51.528;7.192;2023-05-02T02:47:43;11.20;99.90
18067;DHT22;9158;51.528;7.192;2023-05-02T02:48:18;11.00;99.90
18067;DHT22;9158;51.528;7.192;2023-05-02T02:49:11;11.10;99.90
18067;DHT22;9158;51.528;7.192;2023-05-02T02:49:48;11.10;99.90
18067;DHT22;9158;51.528;7.192;2023-05-02T02:50:26;11.00;99.90
18067;DHT22;9158;51.528;7.192;2023-05-02T02:51:07;11.00;99.90
18067;DHT22;9158;51.528;7.192;2023-05-02T02:51:44;11.10;99.90
18067;DHT22;9158;51.528;7.192;2023-05-02T02:52:21;11.10;99.90
18067;DHT22;9158;51.528;7.192;2023-05-02T02:52:59;11.10;99.90
18067;DHT22;9158;51.528;7.192;2023-05-02T02:53:36;11.10;99.90
18067;DHT22;9158;51.528;7.192;2023-05-02T02:54:13;11.10;99.90
18067;DHT22;9158;51.528;7.192;2023-05-02T02:54:52;11.20;99.90
18067;DHT22;9158;51.528;7.192;2023-05-02T02:55:35;11.20;99.90
18067;DHT22;9158;51.528;7.192;2023-05-02T02:56:14;11.20;99.90
18067;DHT22;9158;51.528;7.192;2023-05-02T02:56:48;11.10;99.90
18067;DHT22;9158;51.528;7.192;2023-05-02T02:57:26;11.20;99.90
18067;DHT22;9158;51.528;7.192;2023-05-02T02:58:03;11.20;99.90
18067;DHT22;9158;51.528;7.192;2023-05-02T02:58:45;11.20;99.90
18067;DHT22;9158;51.528;7.192;2023-05-02T02:59:22;11.20;99.90
18067;DHT22;9158;51.528;7.192;2023-05-02T03:00:00;11.20;99.90
18067;DHT22;9158;51.528;7.192;2023-05-02T03:00:34;11.20;99.90
18067;DHT22;9158;51.528;7.192;2023-05-02T03:01:14;11.10;99.90
18067;DHT22;9158;51.528;7.192;2023-05-02T03:01:54;11.10;99.90
18067;DHT22;9158;51.528;7.192;2023-05-02T03:02:29;11.10;99.90
18067;DHT22;9158;51.528;7.192;2023-05-02T03:03:04;11.10;99.90
18067;DHT22;9158;51.528;7.192;2023-05-02T03:03:38;11.10;99.90
18067;DHT22;9158;51.528;7.192;2023-05-02T03:04:10;11.10;99.90
18067;DHT22;9158;51.528;7.192;2023-05-02T03:04:45;11.20;99.90
18067;DHT22;9158;51.528;7.192;2023-05-02T03:05:17;11.10;99.90
18067;DHT22;9158;51.528;7.192;2023-05-02T03:05:49;11.10;99.90
18067;DHT22;9158;51.528;7.192;2023-05-02T03:06:23;11.10;76.30
18067;DHT22;9158;51.528;7.192;2023-05-02T03:06:56;11.10;46.60
18067;DHT22;9158;51.528;7.192;2023-05-02T03:07:27;11.10;66.70
18067;DHT22;9158;51.528;7.192;2023-05-02T03:08:00;11.10;79.20
18067;DHT22;9158;51.528;7.192;2023-05-02T03:08:38;11.10;77.60
18067;DHT22;9158;51.528;7.192;2023-05-02T03:09:14;11.10;56.00
18067;DHT22;9158;51.528;7.192;2023-05-02T03:09:47;11.10;11.40
18067;DHT22;9158;51.528;7.192;2023-05-02T03:10:24;11.10;34.80
18067;DHT22;9158;51.528;7.192;2023-05-02T03:10:55;11.10;67.60
18067;DHT22;9158;51.528;7.192;2023-05-02T03:11:26;11.20;94.50
18067;DHT22;9158;51.528;7.192;2023-05-02T03:11:58;11.20;99.90
18067;DHT22;9158;51.528;7.192;2023-05-02T03:12:30;11.20;85.80
18067;DHT22;9158;51.528;7.192;2023-05-02T03:13:01;11.20;99.90
18067;DHT22;9158;51.528;7.192;2023-05-02T03:13:34;11.20;99.90
18067;DHT22;9158;51.528;7.192;2023-05-02T03:14:05;11.20;99.90
18067;DHT22;9158;51.528;7.192;2023-05-02T03:14:37;11.20;99.90
18067;DHT22;9158;51.528;7.192;2023-05-02T03:15:21;11.30;62.40
18067;DHT22;9158;51.528;7.192;2023-05-02T03:16:59;11.30;43.60
18067;DHT22;9158;51.528;7.192;2023-05-02T03:17:31;11.20;63.60
18067;DHT22;9158;51.528;7.192;2023-05-02T03:18:02;11.20;31.80
18067;DHT22;9158;51.528;7.192;2023-05-02T03:18:33;11.90;82.30
18067;DHT22;9158;51.528;7.192;2023-05-02T03:19:06;11.20;99.90
18067;DHT22;9158;51.528;7.192;2023-05-02T03:19:38;11.20;99.90
18067;DHT22;9158;51.528;7.192;2023-05-02T03:20:10;11.20;99.90
18067;DHT22;9158;51.528;7.192;2023-05-02T03:20:41;11.20;99.90
18067;DHT22;9158;51.528;7.192;2023-05-02T03:21:12;11.20;99.90
18067;DHT22;9158;51.528;7.192;2023-05-02T03:21:45;11.20;99.90
18067;DHT22;9158;51.528;7.192;2023-05-02T03:22:22;11.20;99.90
18067;DHT22;9158;51.528;7.192;2023-05-02T03:22:54;11.20;99.90
18067;DHT22;9158;51.528;7.192;2023-05-02T03:23:25;11.20;99.90
18067;DHT22;9158;51.528;7.192;2023-05-02T03:23:59;11.20;99.90
18067;DHT22;9158;51.528;7.192;2023-05-02T03:24:31;11.20;99.90
18067;DHT22;9158;51.528;7.192;2023-05-02T03:25:02;11.20;99.90
18067;DHT22;9158;51.528;7.192;2023-05-02T03:25:35;11.20;99.90
18067;DHT22;9158;51.528;7.192;2023-05-02T03:26:06;11.30;99.90
18067;DHT22;9158;51.528;7.192;2023-05-02T03:26:38;11.20;99.90
18067;DHT22;9158;51.528;7.192;2023-05-02T03:27:12;11.20;96.50
18067;DHT22;9158;51.528;7.192;2023-05-02T03:27:46;11.20;99.90
18067;DHT22;9158;51.528;7.192;2023-05-02T03:28:17;11.20;99.90
18067;DHT22;9158;51.528;7.192;2023-05-02T03:28:51;11.20;99.90
18067;DHT22;9158;51.528;7.192;2023-05-02T03:29:30;11.20;99.90
18067;DHT22;9158;51.528;7.192;2023-05-02T03:30:01;11.20;99.90
18067;DHT22;9158;51.528;7.192;2023-05-02T03:30:35;11.20;99.90
18067;DHT22;9158;51.528;7.192;2023-05-02T03:31:11;11.20;99.90
18067;DHT22;9158;51.528;7.192;2023-05-02T03:31:43;11.20;99.90
18067;DHT22;9158;51.528;7.192;2023-05-02T03:32:17;11.30;99.90
18067;DHT22;9158;51.528;7.192;2023-05-02T03:32:48;11.30;99.90
18067;DHT22;9158;51.528;7.192;2023-05-02T03:33:20;11.30;99.90
18067;DHT22;9158;51.528;7.192;2023-05-02T03:33:52;11.30;99.90
18067;DHT22;9158;51.528;7.192;2023-05-02T03:34:23;11.30;99.90
18067;DHT22;9158;51.528;7.192;2023-05-02T03:34:56;11.30;99.90
18067;DHT22;9158;51.528;7.192;2023-05-02T03:35:33;11.30;99.90
18067;DHT22;9158;51.528;7.192;2023-05-02T03:36:05;11.30;99.90
18067;DHT22;9158;51.528;7.192;2023-05-02T03:36:37;11.30;99.90
18067;DHT22;9158;51.528;7.192;2023-05-02T03:37:08;11.30;99.90
18067;DHT22;9158;51.528;7.192;2023-05-02T03:37:41;11.30;99.90
18067;DHT22;9158;51.528;7.192;2023-05-02T03:38:12;11.40;95.00
18067;DHT22;9158;51.528;7.192;2023-05-02T03:38:43;11.40;94.20
18067;DHT22;9158;51.528;7.192;2023-05-02T03:39:16;11.40;50.20
18067;DHT22;9158;51.528;7.192;2023-05-02T03:39:49;11.40;28.30
18067;DHT22;9158;51.528;7.192;2023-05-02T03:40:20;11.40;1.00
18067;DHT22;9158;51.528;7.192;2023-05-02T03:40:52;11.40;1.00
18067;DHT22;9158;51.528;7.192;2023-05-02T03:41:27;11.40;1.00
18067;DHT22;9158;51.528;7.192;2023-05-02T03:42:05;11.40;1.00
18067;DHT22;9158;51.528;7.192;2023-05-02T03:42:37;11.30;1.00
18067;DHT22;9158;51.528;7.192;2023-05-02T03:43:15;11.30;1.00
18067;DHT22;9158;51.528;7.192;2023-05-02T03:43:46;11.30;1.00